createdAt,value
2022-08-17T00:00:11.977Z,19.84
2022-08-17T00:02:59.674Z,19.69
2022-08-17T00:05:27.742Z,19.65
2022-08-17T00:07:55.342Z,19.66
2022-08-17T00:10:24.919Z,19.69
2022-08-17T00:12:52.877Z,19.64
2022-08-17T00:15:21.063Z,19.56
2022-08-17T00:17:49.584Z,19.50
2022-08-17T00:20:17.328Z,19.44
2022-08-17T00:22:47.518Z,19.35
2022-08-17T00:25:19.488Z,19.30
2022-08-17T00:27:48.375Z,19.16
2022-08-17T00:30:15.892Z,19.17
2022-08-17T00:33:15.711Z,19.24
2022-08-17T00:35:33.679Z,19.18
2022-08-17T00:38:01.483Z,19.22
2022-08-17T00:40:40.610Z,19.23
2022-08-17T00:43:18.010Z,19.34
2022-08-17T00:45:45.990Z,19.37
2022-08-17T00:48:29.007Z,19.34
2022-08-17T00:51:00.970Z,19.27
2022-08-17T00:53:30.841Z,19.23
2022-08-17T00:55:59.004Z,19.31
2022-08-17T00:58:35.774Z,19.45
2022-08-17T01:01:04.751Z,19.47
2022-08-17T01:03:32.583Z,19.60
2022-08-17T01:06:02.713Z,19.54
2022-08-17T01:08:31.540Z,19.88
2022-08-17T01:11:02.234Z,20.21
2022-08-17T01:13:39.824Z,20.29
2022-08-17T01:16:13.358Z,20.22
2022-08-17T01:18:42.098Z,20.20
2022-08-17T01:21:16.019Z,20.18
2022-08-17T01:23:44.862Z,20.24
2022-08-17T01:26:12.346Z,20.46
2022-08-17T01:28:53.740Z,20.38
2022-08-17T01:31:24.812Z,20.50
2022-08-17T01:33:52.405Z,20.53
2022-08-17T01:36:20.194Z,20.55
2022-08-17T01:38:49.030Z,20.49
2022-08-17T01:41:17.354Z,20.49
2022-08-17T01:43:47.282Z,20.48
2022-08-17T01:46:16.837Z,20.55
2022-08-17T01:48:47.300Z,20.61
2022-08-17T01:51:15.702Z,20.57
2022-08-17T01:53:46.345Z,20.61
2022-08-17T01:56:17.581Z,20.62
2022-08-17T01:58:45.615Z,20.55
2022-08-17T02:01:14.897Z,20.61
2022-08-17T02:03:59.259Z,20.61
2022-08-17T02:06:29.726Z,20.54
2022-08-17T02:09:02.476Z,20.58
2022-08-17T02:11:34.259Z,20.56
2022-08-17T02:14:03.994Z,20.56
2022-08-17T02:16:37.420Z,20.56
2022-08-17T02:19:07.885Z,20.67
2022-08-17T02:21:35.577Z,20.56
2022-08-17T02:24:03.630Z,20.58
2022-08-17T02:26:32.469Z,20.68
2022-08-17T02:29:00.021Z,20.69
2022-08-17T02:31:27.646Z,20.57
2022-08-17T02:34:03.338Z,20.58
2022-08-17T02:36:32.501Z,20.47
2022-08-17T02:39:00.750Z,20.52
2022-08-17T02:41:28.339Z,20.49
2022-08-17T02:43:57.251Z,20.46
2022-08-17T02:46:24.752Z,20.38
2022-08-17T02:48:52.258Z,20.43
2022-08-17T02:51:20.480Z,20.46
2022-08-17T02:53:47.984Z,20.39
2022-08-17T02:56:15.779Z,20.38
2022-08-17T02:58:43.292Z,20.39
2022-08-17T03:01:12.577Z,20.37
2022-08-17T03:03:40.856Z,20.28
2022-08-17T03:06:09.353Z,20.31
2022-08-17T03:08:37.405Z,20.25
2022-08-17T03:11:05.118Z,20.25
2022-08-17T03:13:32.601Z,20.27
2022-08-17T03:16:00.110Z,20.25
2022-08-17T03:18:28.995Z,20.23
2022-08-17T03:20:58.330Z,20.21
2022-08-17T03:23:27.301Z,20.20
2022-08-17T03:25:56.153Z,20.14
2022-08-17T03:28:24.201Z,20.12
2022-08-17T03:30:52.240Z,20.21
2022-08-17T03:33:20.595Z,20.26
2022-08-17T03:35:49.467Z,20.25
2022-08-17T03:38:17.817Z,20.17
2022-08-17T03:40:58.957Z,20.17
2022-08-17T03:43:29.422Z,20.14
2022-08-17T03:46:27.915Z,20.18
2022-08-17T03:49:17.814Z,20.14
2022-08-17T03:52:09.681Z,20.19
2022-08-17T03:54:55.083Z,20.15
2022-08-17T03:57:22.611Z,20.13
2022-08-17T03:59:50.242Z,20.18
2022-08-17T04:02:20.310Z,20.16
2022-08-17T04:04:50.619Z,20.17
2022-08-17T04:07:20.320Z,20.09
2022-08-17T04:09:47.882Z,20.14
2022-08-17T04:12:16.333Z,20.08
2022-08-17T04:14:53.562Z,20.04
2022-08-17T04:17:24.099Z,20.06
2022-08-17T04:19:51.650Z,20.21
2022-08-17T04:22:30.894Z,20.23
2022-08-17T04:25:03.510Z,20.26
2022-08-17T04:27:30.993Z,20.29
2022-08-17T04:29:58.838Z,20.25
2022-08-17T04:33:00.767Z,20.26
2022-08-17T04:35:13.799Z,20.21
2022-08-17T04:37:42.633Z,20.22
2022-08-17T04:40:31.628Z,20.10
2022-08-17T04:43:03.564Z,20.06
2022-08-17T04:45:31.949Z,20.16
2022-08-17T04:48:00.588Z,20.19
2022-08-17T04:50:28.160Z,20.25
2022-08-17T04:52:57.302Z,20.13
2022-08-17T04:55:25.035Z,20.20
2022-08-17T04:57:52.516Z,20.27
2022-08-17T05:00:20.268Z,20.26
2022-08-17T05:02:50.352Z,20.27
2022-08-17T05:05:19.903Z,20.20
2022-08-17T05:07:48.551Z,20.33
2022-08-17T05:10:17.747Z,20.31
2022-08-17T05:12:45.226Z,20.37
2022-08-17T05:15:15.991Z,20.33
2022-08-17T05:17:43.553Z,20.38
2022-08-17T05:20:11.693Z,20.40
2022-08-17T05:22:50.157Z,20.40
2022-08-17T05:25:23.927Z,20.49
2022-08-17T05:27:53.361Z,20.51
2022-08-17T05:30:21.016Z,20.49
2022-08-17T05:32:53.492Z,20.56
2022-08-17T05:35:21.364Z,20.61
2022-08-17T05:37:48.914Z,20.72
2022-08-17T05:40:17.090Z,20.78
2022-08-17T05:42:45.944Z,20.86
2022-08-17T05:45:15.638Z,20.89
2022-08-17T05:47:44.560Z,20.97
2022-08-17T05:50:18.071Z,21.04
2022-08-17T05:52:51.909Z,21.11
2022-08-17T05:55:24.442Z,21.18
2022-08-17T05:58:05.472Z,21.23
2022-08-17T06:00:41.882Z,21.29
2022-08-17T06:03:20.270Z,21.31
2022-08-17T06:05:58.087Z,21.35
2022-08-17T06:08:33.659Z,21.43
2022-08-17T06:11:10.730Z,21.46
2022-08-17T06:13:58.819Z,21.55
2022-08-17T06:16:34.455Z,21.60
2022-08-17T06:19:05.359Z,21.62
2022-08-17T06:21:36.125Z,21.69
2022-08-17T06:24:07.453Z,21.74
2022-08-17T06:26:42.444Z,21.75
2022-08-17T06:29:33.428Z,21.82
2022-08-17T06:32:02.387Z,21.89
2022-08-17T06:34:30.183Z,21.96
2022-08-17T06:37:03.629Z,22.05
2022-08-17T06:39:42.510Z,22.14
2022-08-17T06:42:54.120Z,22.10
2022-08-17T06:45:09.772Z,22.11
2022-08-17T06:47:41.311Z,22.29
2022-08-17T06:50:14.596Z,22.44
2022-08-17T06:52:48.525Z,22.50
2022-08-17T06:55:21.211Z,22.47
2022-08-17T06:57:52.094Z,22.49
2022-08-17T07:00:24.190Z,22.66
2022-08-17T07:02:56.203Z,22.62
2022-08-17T07:05:27.437Z,22.63
2022-08-17T07:08:04.181Z,22.56
2022-08-17T07:10:40.553Z,22.54
2022-08-17T07:13:21.178Z,22.66
2022-08-17T07:15:54.015Z,22.85
2022-08-17T07:18:26.975Z,23.01
2022-08-17T07:20:59.525Z,22.92
2022-08-17T07:23:36.368Z,22.89
2022-08-17T07:26:06.015Z,22.86
2022-08-17T07:28:34.814Z,22.84
2022-08-17T07:31:05.157Z,22.98
2022-08-17T07:33:34.834Z,23.21
2022-08-17T07:36:02.329Z,23.15
2022-08-17T07:38:31.711Z,23.17
2022-08-17T07:41:05.048Z,23.29
2022-08-17T07:43:34.107Z,23.24
2022-08-17T07:46:24.482Z,23.22
2022-08-17T07:48:53.908Z,23.16
2022-08-17T07:51:33.779Z,23.10
2022-08-17T07:54:14.137Z,23.11
2022-08-17T07:56:45.693Z,23.24
2022-08-17T07:59:16.354Z,23.40
2022-08-17T08:01:49.061Z,23.22
2022-08-17T08:07:26.696Z,23.32
2022-08-17T08:10:06.329Z,23.55
2022-08-17T08:12:36.993Z,23.63
2022-08-17T08:15:13.848Z,23.30
2022-08-17T08:17:51.795Z,23.27
2022-08-17T08:20:51.432Z,23.26
2022-08-17T08:23:15.382Z,23.27
2022-08-17T08:25:53.250Z,23.07
2022-08-17T08:28:29.375Z,23.00
2022-08-17T08:31:03.370Z,23.01
2022-08-17T08:33:45.829Z,22.96
2022-08-17T08:36:57.092Z,22.83
2022-08-17T08:39:17.764Z,22.80
2022-08-17T08:41:52.001Z,22.85
2022-08-17T08:45:00.207Z,22.90
2022-08-17T08:47:35.248Z,22.90
2022-08-17T08:50:30.227Z,22.83
2022-08-17T08:53:08.146Z,22.77
2022-08-17T08:55:46.653Z,22.76
2022-08-17T08:58:32.007Z,22.78
2022-08-17T09:01:16.846Z,22.84
2022-08-17T09:04:19.959Z,22.87
2022-08-17T09:06:59.539Z,22.82
2022-08-17T09:09:34.392Z,22.94
2022-08-17T09:12:06.738Z,22.94
2022-08-17T09:14:46.411Z,22.89
2022-08-17T09:17:18.320Z,22.88
2022-08-17T09:19:49.507Z,22.89
2022-08-17T09:22:25.686Z,23.03
2022-08-17T09:24:58.370Z,22.99
2022-08-17T09:27:29.767Z,22.87
2022-08-17T09:30:02.454Z,22.95
2022-08-17T09:32:35.454Z,22.98
2022-08-17T09:35:10.353Z,22.84
2022-08-17T09:37:49.043Z,22.83
2022-08-17T09:40:19.096Z,23.04
2022-08-17T09:42:50.517Z,23.22
2022-08-17T09:45:28.446Z,23.45
2022-08-17T09:48:00.595Z,23.62
2022-08-17T09:51:03.553Z,23.95
2022-08-17T09:53:21.040Z,24.08
2022-08-17T09:55:59.422Z,24.04
2022-08-17T09:58:41.521Z,24.32
2022-08-17T10:01:17.020Z,24.31
2022-08-17T10:04:04.856Z,24.39
2022-08-17T10:06:36.604Z,24.38
2022-08-17T10:09:10.795Z,24.54
2022-08-17T10:11:59.187Z,24.62
2022-08-17T10:14:37.906Z,24.72
2022-08-17T10:17:15.928Z,24.67
2022-08-17T10:19:51.147Z,24.85
2022-08-17T10:22:45.220Z,24.82
2022-08-17T10:25:49.066Z,24.66
2022-08-17T10:28:28.767Z,24.69
2022-08-17T10:33:58.082Z,24.65
2022-08-17T10:36:28.740Z,24.76
2022-08-17T10:39:05.186Z,24.95
2022-08-17T10:41:40.498Z,24.95
2022-08-17T10:44:40.391Z,25.09
2022-08-17T10:47:08.320Z,25.06
2022-08-17T10:49:37.050Z,25.13
2022-08-17T10:52:43.657Z,25.14
2022-08-17T10:55:17.730Z,24.99
2022-08-17T10:57:47.575Z,25.04
2022-08-17T11:01:12.689Z,24.88
2022-08-17T11:03:54.070Z,24.76
2022-08-17T11:06:26.604Z,24.73
2022-08-17T11:09:27.502Z,24.56
2022-08-17T11:12:16.292Z,24.51
2022-08-17T11:14:51.593Z,24.44
2022-08-17T11:17:41.399Z,24.42
2022-08-17T11:20:23.979Z,24.47
2022-08-17T11:23:10.511Z,24.56
2022-08-17T11:25:39.987Z,24.74
2022-08-17T11:28:10.572Z,24.83
2022-08-17T11:30:46.857Z,24.94
2022-08-17T11:33:52.346Z,25.17
2022-08-17T11:36:38.872Z,25.41
2022-08-17T11:39:18.711Z,25.63
2022-08-17T11:41:50.943Z,25.65
2022-08-17T11:44:37.613Z,25.88
2022-08-17T11:47:34.146Z,26.03
2022-08-17T11:50:39.245Z,26.08
2022-08-17T11:53:09.595Z,26.34
2022-08-17T11:56:05.583Z,26.65
2022-08-17T11:58:40.153Z,26.88
2022-08-17T12:01:08.987Z,27.04
2022-08-17T12:03:54.024Z,27.03
2022-08-17T12:06:31.103Z,26.82
2022-08-17T12:09:06.499Z,26.92
2022-08-17T12:11:56.305Z,27.00
2022-08-17T12:14:51.684Z,27.22
2022-08-17T12:17:39.658Z,27.38
2022-08-17T12:20:14.633Z,27.49
2022-08-17T12:22:53.299Z,27.57
2022-08-17T12:25:25.822Z,27.61
2022-08-17T12:28:04.839Z,27.65
2022-08-17T12:30:34.546Z,27.53
2022-08-17T12:33:02.369Z,27.47
2022-08-17T12:35:33.048Z,27.49
2022-08-17T12:38:01.132Z,27.43
2022-08-17T12:40:32.188Z,27.21
2022-08-17T12:43:01.401Z,27.13
2022-08-17T12:45:31.159Z,27.11
2022-08-17T12:48:04.074Z,27.34
2022-08-17T12:50:32.117Z,27.25
2022-08-17T12:53:02.496Z,27.21
2022-08-17T12:55:36.962Z,27.20
2022-08-17T12:58:04.949Z,27.45
2022-08-17T13:00:34.559Z,27.48
2022-08-17T13:03:07.615Z,27.73
2022-08-17T13:05:37.764Z,27.89
2022-08-17T13:08:14.685Z,28.01
2022-08-17T13:10:43.809Z,28.19
2022-08-17T13:13:22.201Z,28.26
2022-08-17T13:15:54.016Z,28.18
2022-08-17T13:18:46.215Z,28.30
2022-08-17T13:21:26.743Z,28.34
2022-08-17T13:24:01.843Z,28.20
2022-08-17T13:26:34.499Z,28.15
2022-08-17T13:29:03.196Z,28.06
2022-08-17T13:31:42.880Z,27.98
2022-08-17T13:34:34.179Z,27.74
2022-08-17T13:37:33.958Z,27.74
2022-08-17T13:40:14.235Z,27.67
2022-08-17T13:42:52.038Z,27.61
2022-08-17T13:45:39.192Z,27.69
2022-08-17T13:48:14.336Z,27.75
2022-08-17T13:50:45.445Z,27.98
2022-08-17T13:53:18.232Z,28.26
2022-08-17T13:55:49.144Z,28.42
2022-08-17T13:58:22.954Z,28.50
2022-08-17T14:00:51.664Z,28.76
2022-08-17T14:03:20.069Z,28.91
2022-08-17T14:05:48.401Z,28.94
2022-08-17T14:08:17.353Z,28.64
2022-08-17T14:10:45.457Z,28.56
2022-08-17T14:13:15.262Z,28.62
2022-08-17T14:15:53.988Z,28.78
2022-08-17T14:18:42.047Z,29.02
2022-08-17T14:21:11.955Z,29.32
2022-08-17T14:23:39.440Z,29.46
2022-08-17T14:26:08.513Z,29.38
2022-08-17T14:28:36.466Z,29.29
2022-08-17T14:31:07.340Z,29.34
2022-08-17T14:33:35.257Z,29.51
2022-08-17T14:36:02.739Z,29.53
2022-08-17T14:38:30.304Z,29.48
2022-08-17T14:40:58.222Z,29.36
2022-08-17T14:43:25.877Z,29.40
2022-08-17T14:45:53.360Z,29.43
2022-08-17T14:48:22.231Z,29.33
2022-08-17T14:50:49.717Z,29.38
2022-08-17T14:53:17.290Z,29.35
2022-08-17T14:55:45.765Z,29.48
2022-08-17T14:58:14.684Z,29.57
2022-08-17T15:00:43.588Z,29.53
2022-08-17T15:03:12.244Z,29.48
2022-08-17T15:05:44.016Z,29.57
2022-08-17T15:08:11.631Z,29.42
2022-08-17T15:10:39.610Z,29.28
2022-08-17T15:13:21.178Z,29.54
2022-08-17T15:15:49.919Z,29.58
2022-08-17T15:18:18.535Z,29.61
2022-08-17T15:20:48.638Z,29.60
2022-08-17T15:23:16.886Z,29.70
2022-08-17T15:25:44.655Z,29.61
2022-08-17T15:28:12.158Z,29.65
2022-08-17T15:30:42.931Z,29.71
2022-08-17T15:33:14.113Z,29.62
2022-08-17T15:35:44.151Z,29.68
2022-08-17T15:38:13.369Z,29.60
2022-08-17T15:40:45.336Z,29.58
2022-08-17T15:43:14.695Z,29.44
2022-08-17T15:45:42.435Z,29.27
2022-08-17T15:48:10.352Z,29.30
2022-08-17T15:50:38.297Z,29.27
2022-08-17T15:53:05.781Z,29.33
2022-08-17T15:55:35.222Z,29.26
2022-08-17T15:58:02.815Z,29.32
2022-08-17T16:00:30.449Z,29.22
2022-08-17T16:03:44.914Z,29.20
2022-08-17T16:05:47.546Z,29.32
2022-08-17T16:08:20.606Z,29.34
2022-08-17T16:10:49.929Z,29.32
2022-08-17T16:13:18.289Z,29.24
2022-08-17T16:15:51.040Z,29.23
2022-08-17T16:18:25.538Z,29.10
2022-08-17T16:20:53.576Z,29.24
2022-08-17T16:23:21.041Z,29.30
2022-08-17T16:25:53.717Z,29.52
2022-08-17T16:28:35.791Z,29.44
2022-08-17T16:31:05.790Z,29.44
2022-08-17T16:33:35.824Z,29.33
2022-08-17T16:36:03.573Z,29.26
2022-08-17T16:38:31.060Z,29.22
2022-08-17T16:40:59.984Z,29.16
2022-08-17T16:43:28.673Z,28.94
2022-08-17T16:45:56.159Z,28.97
2022-08-17T16:48:24.215Z,29.07
2022-08-17T16:51:02.933Z,29.36
2022-08-17T16:53:31.480Z,29.26
2022-08-17T16:56:00.415Z,29.12
2022-08-17T16:58:27.949Z,29.10
2022-08-17T17:00:57.159Z,29.07
2022-08-17T17:03:26.031Z,29.09
2022-08-17T17:06:00.499Z,29.12
2022-08-17T17:08:34.681Z,29.06
2022-08-17T17:11:10.345Z,29.13
2022-08-17T17:13:40.341Z,29.04
2022-08-17T17:16:14.790Z,28.99
2022-08-17T17:18:56.270Z,28.86
2022-08-17T17:21:26.649Z,28.90
2022-08-17T17:23:57.790Z,28.87
2022-08-17T17:26:35.322Z,28.77
2022-08-17T17:29:16.273Z,28.90
2022-08-17T17:31:51.690Z,28.82
2022-08-17T17:34:19.940Z,28.70
2022-08-17T17:36:51.682Z,28.74
2022-08-17T17:39:31.878Z,28.60
2022-08-17T17:42:05.703Z,28.70
2022-08-17T17:44:36.011Z,28.62
2022-08-17T17:47:04.516Z,28.56
2022-08-17T17:49:35.322Z,28.59
2022-08-17T17:52:13.186Z,28.62
2022-08-17T17:54:57.429Z,28.62
2022-08-17T17:57:34.096Z,28.54
2022-08-17T18:00:06.710Z,28.47
2022-08-17T18:02:51.548Z,28.32
2022-08-17T18:05:40.283Z,28.22
2022-08-17T18:08:12.633Z,28.18
2022-08-17T18:10:49.125Z,28.18
2022-08-17T18:13:22.748Z,28.05
2022-08-17T18:15:54.767Z,27.94
2022-08-17T18:18:37.566Z,27.86
2022-08-17T18:21:14.717Z,27.80
2022-08-17T18:23:54.908Z,27.71
2022-08-17T18:26:37.914Z,27.65
2022-08-17T18:29:22.894Z,27.53
2022-08-17T18:32:12.450Z,27.46
2022-08-17T18:34:48.521Z,27.33
2022-08-17T18:37:35.070Z,27.25
2022-08-17T18:40:26.014Z,27.12
2022-08-17T18:43:12.789Z,27.00
2022-08-17T18:45:48.338Z,26.90
2022-08-17T18:48:33.176Z,26.88
2022-08-17T18:51:02.607Z,26.75
2022-08-17T18:53:39.145Z,26.71
2022-08-17T18:56:30.703Z,26.57
2022-08-17T18:59:22.924Z,26.42
2022-08-17T19:02:10.251Z,26.31
2022-08-17T19:04:42.266Z,26.17
2022-08-17T19:07:14.039Z,26.07
2022-08-17T19:09:45.222Z,26.00
2022-08-17T19:12:27.190Z,25.86
2022-08-17T19:14:56.444Z,25.78
2022-08-17T19:17:30.078Z,25.67
2022-08-17T19:20:01.161Z,25.60
2022-08-17T19:22:37.181Z,25.56
2022-08-17T19:25:11.495Z,25.51
2022-08-17T19:27:49.965Z,25.45
2022-08-17T19:30:18.046Z,25.41
2022-08-17T19:32:46.926Z,25.40
2022-08-17T19:35:17.543Z,25.35
2022-08-17T19:37:52.677Z,25.22
2022-08-17T19:40:50.979Z,25.15
2022-08-17T19:43:19.727Z,25.13
2022-08-17T19:45:56.954Z,25.01
2022-08-17T19:48:35.535Z,25.01
2022-08-17T19:51:07.283Z,24.95
2022-08-17T19:54:04.506Z,24.79
2022-08-17T19:56:37.863Z,24.71
2022-08-17T19:59:11.284Z,24.58
2022-08-17T20:01:47.979Z,24.44
2022-08-17T20:04:22.285Z,24.41
2022-08-17T20:06:50.287Z,24.31
2022-08-17T20:09:21.150Z,24.23
2022-08-17T20:11:50.454Z,24.17
2022-08-17T20:14:20.757Z,24.09
2022-08-17T20:16:48.551Z,24.06
2022-08-17T20:19:23.819Z,24.02
2022-08-17T20:21:55.277Z,23.98
2022-08-17T20:24:27.086Z,24.00
2022-08-17T20:26:58.393Z,23.85
2022-08-17T20:29:40.247Z,23.78
2022-08-17T20:32:20.080Z,23.69
2022-08-17T20:34:49.198Z,23.69
2022-08-17T20:37:30.076Z,23.62
2022-08-17T20:40:22.434Z,23.55
2022-08-17T20:42:49.940Z,23.46
2022-08-17T20:45:43.340Z,23.43
2022-08-17T20:48:36.210Z,23.34
2022-08-17T20:51:17.774Z,23.29
2022-08-17T20:54:02.070Z,23.23
2022-08-17T20:56:56.113Z,23.18
2022-08-17T21:00:04.873Z,22.97
2022-08-17T21:02:32.806Z,22.95
2022-08-17T21:05:30.340Z,22.87
2022-08-17T21:08:01.029Z,22.84
2022-08-17T21:10:38.506Z,22.83
2022-08-17T21:13:29.508Z,22.78
2022-08-17T21:15:59.882Z,22.67
2022-08-17T21:18:34.001Z,22.63
2022-08-17T21:21:14.146Z,22.55
2022-08-17T21:23:58.493Z,22.50
2022-08-17T21:26:33.222Z,22.53
2022-08-17T21:29:14.703Z,22.44
2022-08-17T21:32:21.060Z,22.30
2022-08-17T21:35:23.903Z,22.19
2022-08-17T21:37:54.003Z,22.19
2022-08-17T21:40:26.620Z,22.05
2022-08-17T21:42:57.994Z,22.03
2022-08-17T21:45:27.567Z,22.00
2022-08-17T21:48:09.442Z,21.99
2022-08-17T21:50:37.535Z,22.00
2022-08-17T21:53:05.919Z,22.03
2022-08-17T21:55:36.782Z,22.04
2022-08-17T21:58:14.427Z,21.96
2022-08-17T22:00:44.075Z,21.93
2022-08-17T22:03:23.581Z,21.96
2022-08-17T22:05:51.677Z,21.92
2022-08-17T22:08:24.674Z,21.95
2022-08-17T22:11:01.894Z,22.08
2022-08-17T22:13:30.039Z,22.13
2022-08-17T22:16:27.966Z,22.01
2022-08-17T22:18:57.836Z,21.91
2022-08-17T22:21:26.096Z,21.78
2022-08-17T22:24:04.822Z,21.74
2022-08-17T22:27:03.318Z,21.79
2022-08-17T22:29:57.494Z,21.79
2022-08-17T22:32:41.373Z,21.96
2022-08-17T22:35:37.240Z,21.93
2022-08-17T22:38:27.098Z,21.96
2022-08-17T22:40:57.354Z,21.93
2022-08-17T22:43:28.466Z,21.90
2022-08-17T22:45:59.111Z,21.89
2022-08-17T22:48:29.402Z,21.82
2022-08-17T22:51:12.797Z,21.77
2022-08-17T22:54:04.485Z,21.71
2022-08-17T22:56:49.872Z,21.61
2022-08-17T22:59:41.749Z,21.56
2022-08-17T23:02:27.462Z,21.49
2022-08-17T23:04:59.169Z,21.41
2022-08-17T23:07:27.649Z,21.39
2022-08-17T23:09:55.531Z,21.38
2022-08-17T23:12:26.274Z,21.38
2022-08-17T23:15:00.552Z,21.39
2022-08-17T23:17:33.917Z,21.37
2022-08-17T23:20:05.260Z,21.37
2022-08-17T23:22:33.254Z,21.37
2022-08-17T23:25:00.715Z,21.35
2022-08-17T23:27:29.258Z,21.24
2022-08-17T23:29:58.641Z,21.11
2022-08-17T23:32:26.363Z,21.16
2022-08-17T23:34:53.875Z,21.17
2022-08-17T23:37:21.360Z,21.20
2022-08-17T23:39:48.807Z,21.05
2022-08-17T23:42:21.599Z,20.86
2022-08-17T23:44:49.457Z,20.62
2022-08-17T23:47:18.448Z,20.54
2022-08-17T23:49:45.950Z,20.53
2022-08-17T23:52:16.345Z,20.62
2022-08-17T23:54:46.510Z,20.89
2022-08-17T23:57:16.675Z,20.86
2022-08-17T23:59:44.782Z,20.83
